Time;durP1;ratioP1;P1;durP2;ratioP2;P2;SDS_P1;SDS_P2;PMS_P1;PMS_P2;Temp;Humidity;BMP_temperature;BMP_pressure;BME280_temperature;BME280_humidity;BME280_pressure;Samples;Min_cycle;Max_cycle;Signal;HPM_P1;HPM_P2
2022/08/16 00:02:16;;;;;;;13.70;11.00;;;21.00;99.90;;;;;;6023118;23;20062;-81
2022/08/16 00:04:50;;;;;;;11.40;10.27;;;20.80;99.90;;;;;;6001583;23;20016;-81
2022/08/16 00:07:19;;;;;;;12.75;11.43;;;20.80;99.90;;;;;;6048945;23;20644;-81
2022/08/16 00:09:49;;;;;;;16.65;11.65;;;20.60;99.90;;;;;;6024383;23;20814;-81
2022/08/16 00:12:21;;;;;;;14.23;12.00;;;20.60;99.90;;;;;;6024477;23;20027;-81
2022/08/16 00:15:22;;;;;;;13.38;12.07;;;20.60;99.90;;;;;;6010538;23;20042;-81
2022/08/16 00:18:06;;;;;;;13.55;12.35;;;20.50;99.90;;;;;;6011569;23;20019;-81
2022/08/16 00:20:47;;;;;;;14.75;12.35;;;20.80;99.90;;;;;;6049033;23;20064;-81
2022/08/16 00:23:20;;;;;;;15.63;14.18;;;20.50;99.90;;;;;;6030347;23;20396;-81
2022/08/16 00:25:48;;;;;;;16.92;14.90;;;20.80;99.90;;;;;;6029892;23;20855;-81
2022/08/16 00:28:23;;;;;;;14.32;12.93;;;21.10;99.90;;;;;;6030735;23;20018;-81
2022/08/16 00:30:54;;;;;;;13.90;12.70;;;20.50;99.90;;;;;;6030697;23;20480;-81
2022/08/16 00:33:32;;;;;;;15.15;13.75;;;20.50;99.90;;;;;;6030380;23;20023;-81
2022/08/16 00:36:34;;;;;;;15.60;13.20;;;20.20;99.90;;;;;;6031405;23;20122;-81
2022/08/16 00:39:02;;;;;;;17.27;15.63;;;20.50;99.90;;;;;;6030284;23;20019;-81
2022/08/16 00:41:34;;;;;;;14.70;13.25;;;20.40;99.90;;;;;;6028892;23;20017;-81
2022/08/16 00:44:19;;;;;;;;;;;;;;;;;;;;;
2022/08/16 00:47:22;;;;;;;16.17;14.40;;;20.70;99.90;;;;;;6055674;23;20085;-80
2022/08/16 00:53:34;;;;;;;;;;;;;;;;;;;;;
2022/08/16 00:56:21;;;;;;;16.27;14.52;;;20.30;99.90;;;;;;6025688;23;20019;-80
2022/08/16 00:59:02;;;;;;;;;;;;;;;;;;;;;
2022/08/16 01:01:28;;;;;;;16.55;15.05;;;20.30;99.90;;;;;;6053540;23;20523;-80
2022/08/16 01:03:54;;;;;;;17.25;15.45;;;20.40;99.90;;;;;;6031037;23;20026;-80
2022/08/16 01:06:23;;;;;;;16.60;15.10;;;20.30;99.90;;;;;;6030042;23;20026;-80
2022/08/16 01:09:07;;;;;;;;;;;;;;;;;;;;;
2022/08/16 01:11:40;;;;;;;14.75;13.50;;;20.30;99.90;;;;;;6027428;23;20876;-81
2022/08/16 01:14:17;;;;;;;16.17;14.57;;;20.50;99.90;;;;;;6034235;23;20515;-81
2022/08/16 01:17:03;;;;;;;;;;;;;;;;;;;;;
2022/08/16 01:19:55;;;;;;;17.60;15.80;;;20.40;99.90;;;;;;6029201;23;20019;-80
2022/08/16 01:23:08;;;;;;;15.95;14.50;;;20.40;99.90;;;;;;6029827;23;20176;-80
2022/08/16 01:25:44;;;;;;;15.20;13.90;;;20.40;99.90;;;;;;6054621;23;20026;-80
2022/08/16 01:28:16;;;;;;;16.33;14.80;;;20.30;99.90;;;;;;6054100;23;20029;-80
2022/08/16 01:30:51;;;;;;;15.65;13.80;;;20.40;99.90;;;;;;6029731;23;20778;-80
2022/08/16 01:33:28;;;;;;;15.57;14.25;;;20.30;99.90;;;;;;6054802;23;20090;-78
2022/08/16 01:36:20;;;;;;;16.88;15.48;;;20.40;99.90;;;;;;6056535;23;20113;-79
2022/08/16 01:39:00;;;;;;;17.65;15.88;;;20.30;99.90;;;;;;6056750;23;20662;-78
2022/08/16 01:42:09;;;;;;;;;;;;;;;;;;;;;
2022/08/16 01:44:51;;;;;;;17.98;16.55;;;20.40;99.90;;;;;;6080815;23;20451;-78
2022/08/16 01:47:22;;;;;;;18.17;16.52;;;20.40;99.90;;;;;;6056031;23;20028;-78
2022/08/16 01:49:53;;;;;;;18.58;16.65;;;20.40;99.90;;;;;;6030398;23;20018;-78
2022/08/16 01:52:35;;;;;;;;;;;;;;;;;;;;;
2022/08/16 01:55:17;;;;;;;20.38;18.52;;;20.40;99.90;;;;;;6053787;23;20086;-78
2022/08/16 01:57:52;;;;;;;;;;;;;;;;;;;;;
2022/08/16 02:00:22;;;;;;;20.92;18.65;;;20.90;99.90;;;;;;6056366;23;20069;-78
2022/08/16 02:02:47;;;;;;;20.42;18.35;;;20.40;99.90;;;;;;6032025;23;20117;-78
2022/08/16 02:05:13;;;;;;;20.67;18.90;;;20.50;99.90;;;;;;6032064;23;20044;-78
2022/08/16 02:07:49;;;;;;;19.88;18.10;;;20.40;99.90;;;;;;6084136;23;20108;-79
2022/08/16 02:10:15;;;;;;;19.65;17.95;;;20.40;99.90;;;;;;6058034;23;20018;-78
2022/08/16 02:12:42;;;;;;;21.25;19.35;;;20.30;99.90;;;;;;6061637;23;20014;-78
2022/08/16 02:20:49;;;;;;;21.10;17.92;;;20.30;99.90;;;;;;6120055;23;20030;-79
2022/08/16 02:23:38;;;;;;;20.50;18.80;;;20.40;99.90;;;;;;6092842;23;20440;-78
2022/08/16 02:26:14;;;;;;;22.10;20.05;;;20.20;99.90;;;;;;6120165;23;20056;-79
2022/08/16 02:28:57;;;;;;;;;;;;;;;;;;;;;
2022/08/16 02:31:28;;;;;;;19.38;17.55;;;20.20;99.90;;;;;;6118527;23;20022;-78
2022/08/16 02:33:54;;;;;;;19.58;17.73;;;20.20;99.90;;;;;;6095115;23;20022;-78
2022/08/16 02:36:43;;;;;;;18.48;16.58;;;20.20;99.90;;;;;;6095693;23;20021;-78
2022/08/16 02:39:55;;;;;;;19.23;17.52;;;20.10;99.90;;;;;;6109758;23;20020;-78
2022/08/16 02:42:29;;;;;;;18.88;17.17;;;20.10;99.90;;;;;;6095642;23;20014;-78
2022/08/16 02:44:54;;;;;;;18.02;16.52;;;20.00;99.90;;;;;;6093736;23;20150;-78
2022/08/16 02:47:20;;;;;;;17.85;16.10;;;19.90;99.90;;;;;;6120045;23;20045;-78
2022/08/16 02:49:46;;;;;;;17.38;15.88;;;19.90;99.90;;;;;;6095177;23;20014;-78
2022/08/16 02:52:15;;;;;;;18.15;16.35;;;19.80;99.90;;;;;;6090594;23;20098;-78
2022/08/16 02:54:41;;;;;;;17.98;16.30;;;19.80;99.90;;;;;;6094261;23;20573;-78
2022/08/16 02:57:10;;;;;;;18.85;17.17;;;19.70;99.90;;;;;;6117262;23;20014;-78
2022/08/16 02:59:41;;;;;;;17.75;15.93;;;19.60;99.90;;;;;;6093983;23;20033;-78
2022/08/16 03:02:07;;;;;;;18.52;16.08;;;19.60;99.90;;;;;;6113533;23;20020;-78
2022/08/16 03:04:33;;;;;;;18.25;16.30;;;19.80;99.90;;;;;;6089204;23;20097;-78
2022/08/16 03:06:58;;;;;;;18.08;16.38;;;19.50;99.90;;;;;;6116733;23;20045;-79
2022/08/16 03:09:33;;;;;;;18.52;16.67;;;19.40;99.90;;;;;;6094376;23;20089;-79
2022/08/16 03:12:14;;;;;;;;;;;;;;;;;;;;;
2022/08/16 03:14:52;;;;;;;19.48;15.77;;;19.20;99.90;;;;;;6116735;23;20542;-78
2022/08/16 03:17:23;;;;;;;17.77;15.98;;;19.20;99.90;;;;;;6118464;23;20013;-78
2022/08/16 03:19:52;;;;;;;16.75;15.02;;;19.20;99.90;;;;;;6117703;23;20026;-78
2022/08/16 03:22:19;;;;;;;15.80;13.95;;;19.20;99.90;;;;;;6118091;23;20010;-78
2022/08/16 03:25:12;;;;;;;15.18;13.63;;;19.20;99.90;;;;;;6092951;23;20017;-78
2022/08/16 03:28:04;;;;;;;;;;;;;;;;;;;;;
2022/08/16 03:30:42;;;;;;;15.15;13.85;;;19.60;99.90;;;;;;6117620;23;20112;-78
2022/08/16 03:33:16;;;;;;;13.73;12.55;;;18.90;99.90;;;;;;6093957;23;20510;-78
2022/08/16 03:38:42;;;;;;;14.95;13.30;;;18.90;99.90;;;;;;6106350;23;20077;-78
2022/08/16 03:41:10;;;;;;;21.58;13.88;;;18.80;99.90;;;;;;6116975;23;20674;-78
2022/08/16 03:43:39;;;;;;;15.52;14.15;;;18.60;99.90;;;;;;6093391;23;20014;-78
2022/08/16 03:46:05;;;;;;;17.27;15.68;;;18.60;99.90;;;;;;6093268;23;20092;-78
2022/08/16 03:48:44;;;;;;;17.67;16.05;;;18.60;99.90;;;;;;6118231;23;20040;-79
2022/08/16 03:51:11;;;;;;;16.25;14.50;;;18.60;99.90;;;;;;6090905;23;20022;-79
2022/08/16 03:53:37;;;;;;;15.65;14.35;;;18.40;99.90;;;;;;6094111;23;20440;-78
2022/08/16 03:56:28;;;;;;;15.90;14.40;;;18.80;99.90;;;;;;6095217;23;20100;-78
2022/08/16 03:59:13;;;;;;;16.52;14.45;;;18.50;99.90;;;;;;6095043;23;20704;-78
2022/08/16 04:01:44;;;;;;;15.93;14.40;;;18.30;99.90;;;;;;6116483;23;20467;-78
2022/08/16 04:04:36;;;;;;;15.10;13.80;;;18.30;99.90;;;;;;6094345;23;20045;-78
2022/08/16 04:07:36;;;;;;;15.93;14.40;;;18.30;99.90;;;;;;6096089;23;20429;-80
2022/08/16 04:10:05;;;;;;;18.23;15.35;;;18.30;99.90;;;;;;6096382;23;20057;-80
2022/08/16 04:12:46;;;;;;;15.95;14.50;;;18.30;99.90;;;;;;6120459;23;20021;-80
2022/08/16 04:15:20;;;;;;;16.05;13.70;;;18.20;99.90;;;;;;6094851;23;20449;-80
2022/08/16 04:17:53;;;;;;;16.58;14.77;;;18.20;99.90;;;;;;6072074;23;20018;-80
2022/08/16 04:20:25;;;;;;;15.40;13.80;;;18.10;99.90;;;;;;6094719;23;20112;-80
2022/08/16 04:22:51;;;;;;;14.98;13.63;;;18.00;99.90;;;;;;6122273;23;20049;-80
2022/08/16 04:25:17;;;;;;;15.07;13.18;;;18.10;99.90;;;;;;6120469;23;20010;-80
2022/08/16 04:27:43;;;;;;;13.07;11.88;;;18.10;99.90;;;;;;6098142;23;20010;-80
2022/08/16 04:30:26;;;;;;;22.25;11.95;;;18.10;99.90;;;;;;6096115;23;20018;-80
2022/08/16 04:32:55;;;;;;;14.25;12.80;;;18.10;99.90;;;;;;6095355;23;20020;-80
2022/08/16 04:35:22;;;;;;;14.15;12.73;;;18.40;99.90;;;;;;6119596;23;20050;-81
2022/08/16 04:37:49;;;;;;;19.42;12.85;;;18.10;99.90;;;;;;6122981;23;20048;-80
2022/08/16 04:40:19;;;;;;;16.92;13.25;;;18.10;99.90;;;;;;6122236;23;20010;-80
2022/08/16 04:42:45;;;;;;;15.20;13.57;;;18.10;99.90;;;;;;6074983;23;20336;-81
2022/08/16 04:45:13;;;;;;;17.13;15.70;;;18.20;99.90;;;;;;6122864;23;20048;-81
2022/08/16 04:47:44;;;;;;;19.52;15.68;;;18.20;99.90;;;;;;6096513;23;20034;-82
2022/08/16 04:50:13;;;;;;;18.50;16.73;;;18.30;99.90;;;;;;6099216;23;20145;-82
2022/08/16 04:52:45;;;;;;;20.02;16.45;;;18.40;99.90;;;;;;6125628;23;20081;-82
2022/08/16 04:55:32;;;;;;;20.08;18.13;;;18.50;99.90;;;;;;6122319;23;20014;-80
2022/08/16 04:58:25;;;;;;;18.13;16.50;;;18.60;99.90;;;;;;6100090;23;20018;-80
2022/08/16 05:00:56;;;;;;;17.92;16.48;;;18.80;99.90;;;;;;6119485;23;20018;-80
2022/08/16 05:03:26;;;;;;;19.63;17.48;;;18.90;99.90;;;;;;6098826;23;20097;-81
2022/08/16 05:05:53;;;;;;;20.85;19.05;;;18.90;99.90;;;;;;6073901;23;20018;-79
2022/08/16 05:08:24;;;;;;;19.15;17.45;;;18.90;99.90;;;;;;6097858;23;20537;-81
2022/08/16 05:10:50;;;;;;;17.92;16.05;;;19.10;99.90;;;;;;6120657;23;20025;-81
2022/08/16 05:13:51;;;;;;;18.38;16.05;;;19.40;99.90;;;;;;6124607;23;20037;-81
2022/08/16 05:16:53;;;;;;;18.10;15.45;;;19.90;99.90;;;;;;6105362;23;20025;-82
2022/08/16 05:20:11;;;;;;;15.70;14.23;;;20.40;99.90;;;;;;6096390;23;20022;-82
2022/08/16 05:23:41;;;;;;;;;;;;;;;;;;;;;
2022/08/16 05:26:35;;;;;;;13.70;12.45;;;22.70;99.90;;;;;;6073391;23;20072;-83
2022/08/16 05:29:10;;;;;;;13.55;12.35;;;23.80;99.90;;;;;;6116589;23;20687;-81
2022/08/16 05:31:38;;;;;;;14.25;13.02;;;24.80;99.90;;;;;;6119556;23;20443;-80
2022/08/16 05:34:42;;;;;;;16.42;13.23;;;25.60;99.90;;;;;;6122198;23;20447;-81
2022/08/16 05:41:34;;;;;;;11.80;10.70;;;27.30;99.90;;;;;;6004929;23;20080;-82
2022/08/16 05:44:03;;;;;;;13.73;12.48;;;28.30;99.90;;;;;;5960367;23;20075;-81
2022/08/16 05:46:32;;;;;;;14.23;11.68;;;29.00;99.90;;;;;;6126909;23;20022;-80
2022/08/16 05:49:19;;;;;;;12.63;11.50;;;29.40;99.90;;;;;;6125078;23;20014;-83
2022/08/16 05:52:28;;;;;;;12.45;11.38;;;29.80;99.90;;;;;;6106220;23;20025;-81
2022/08/16 06:01:18;;;;;;;;;;;;;;;;;;;;;
2022/08/16 06:24:43;;;;;;;13.75;12.35;;;23.70;99.90;;;;;;5869978;24;20829;-80
2022/08/16 06:28:04;;;;;;;12.07;11.00;;;23.40;99.90;;;;;;5871531;24;20055;-80
2022/08/16 06:31:27;;;;;;;10.73;9.73;;;23.50;99.90;;;;;;6035949;23;20019;-79
2022/08/16 06:38:18;;;;;;;;;;;;;;;;;;;;;
2022/08/16 06:48:40;;;;;;;;;;;;;;;;;;;;;
2022/08/16 06:52:00;;;;;;;11.82;10.57;;;27.70;99.90;;;;;;5897547;24;20078;-80
2022/08/16 06:55:10;;;;;;;12.65;11.13;;;27.60;99.90;;;;;;5877684;24;20017;-79
2022/08/16 06:59:24;;;;;;;11.07;10.02;;;27.70;99.90;;;;;;5888420;24;20033;-77
2022/08/16 07:02:24;;;;;;;;;;;;;;;;;;;;;
2022/08/16 07:06:19;;;;;;;11.50;10.35;;;28.00;99.90;;;;;;6039353;23;20015;-77
2022/08/16 07:09:53;;;;;;;;;;;;;;;;;;;;;
2022/08/16 07:13:07;;;;;;;;;;;;;;;;;;;;;
2022/08/16 07:16:30;;;;;;;12.63;11.45;;;28.20;99.90;;;;;;6046985;23;20025;-82
2022/08/16 07:20:05;;;;;;;12.40;11.18;;;28.30;99.90;;;;;;6065328;23;20077;-82
2022/08/16 07:31:54;;;;;;;13.45;12.13;;;28.50;99.90;;;;;;6053719;23;20063;-80
2022/08/16 07:35:07;;;;;;;12.68;11.55;;;28.50;99.90;;;;;;6051633;23;20038;-80
2022/08/16 07:39:00;;;;;;;15.07;13.32;;;28.60;99.90;;;;;;5868076;24;20037;-81
2022/08/16 07:43:04;;;;;;;17.55;15.75;;;28.50;99.90;;;;;;5928998;23;20025;-79
2022/08/16 07:46:28;;;;;;;17.40;14.63;;;28.50;99.90;;;;;;5997273;23;20040;-80
2022/08/16 07:57:44;;;;;;;;;;;;;;;;;;;;;
2022/08/16 08:01:17;;;;;;;15.63;13.98;;;28.60;99.90;;;;;;5838326;24;20095;-79
2022/08/16 08:12:40;;;;;;;22.13;16.20;;;28.80;99.50;;;;;;5820695;24;20080;-80
2022/08/16 08:54:51;;;;;;;10.05;8.13;;;29.60;95.60;;;;;;6009476;23;20026;-79
2022/08/16 09:02:14;;;;;;;10.55;7.82;;;29.40;95.60;;;;;;6000454;23;20027;-79
2022/08/16 09:05:40;;;;;;;13.27;8.35;;;29.50;96.10;;;;;;6012138;23;20037;-79
2022/08/16 09:08:44;;;;;;;16.52;8.60;;;29.60;96.00;;;;;;6056757;23;20029;-79
2022/08/16 09:11:13;;;;;;;22.45;9.98;;;29.60;96.00;;;;;;6090557;23;20018;-79
2022/08/16 09:13:39;;;;;;;11.35;8.18;;;29.60;95.20;;;;;;6090703;23;20034;-79
2022/08/16 09:16:05;;;;;;;10.23;7.40;;;29.70;95.20;;;;;;6090138;23;20022;-78
2022/08/16 09:18:31;;;;;;;10.88;7.80;;;29.70;94.90;;;;;;6091347;23;20023;-79
2022/08/16 09:20:58;;;;;;;8.43;7.38;;;29.70;94.80;;;;;;6066144;23;20010;-79
2022/08/16 09:23:24;;;;;;;16.67;8.00;;;29.90;95.10;;;;;;6068806;23;20086;-78
2022/08/16 09:25:50;;;;;;;10.35;7.03;;;29.90;94.40;;;;;;6090526;23;20471;-78
2022/08/16 09:28:16;;;;;;;12.55;6.80;;;30.10;94.20;;;;;;6095441;23;20019;-79
2022/08/16 09:30:42;;;;;;;19.90;7.10;;;29.90;94.10;;;;;;6091161;23;20022;-78
2022/08/16 09:33:08;;;;;;;11.55;6.35;;;29.90;93.70;;;;;;6091977;23;20109;-78
2022/08/16 09:35:35;;;;;;;14.27;6.18;;;29.90;93.30;;;;;;6092468;23;20332;-79
2022/08/16 09:38:29;;;;;;;7.95;5.63;;;30.00;93.50;;;;;;6069589;23;20018;-79
2022/08/16 09:42:20;;;;;;;;;;;;;;;;;;;;;
2022/08/16 09:49:27;;;;;;;16.35;6.22;;;30.20;93.00;;;;;;6004925;23;20023;-80
2022/08/16 09:51:55;;;;;;;63.08;8.65;;;30.10;92.50;;;;;;5946873;23;20059;-79
2022/08/16 09:57:20;;;;;;;7.60;6.57;;;30.10;92.90;;;;;;6092259;23;20030;-78
2022/08/16 09:59:49;;;;;;;9.88;6.57;;;30.10;93.00;;;;;;6070440;23;20621;-79
2022/08/16 10:02:27;;;;;;;10.25;6.28;;;30.40;93.40;;;;;;6067995;23;20087;-79
2022/08/16 10:05:24;;;;;;;7.38;6.78;;;30.40;93.10;;;;;;6068640;23;20066;-80
2022/08/16 10:08:15;;;;;;;9.90;8.20;;;30.60;92.80;;;;;;6066356;23;20067;-78
2022/08/16 10:13:10;;;;;;;8.80;8.00;;;30.70;93.00;;;;;;6048208;23;20117;-79
2022/08/16 10:13:38;;;;;;;15.40;8.60;;;30.80;93.30;;;;;;6096606;23;20662;-78
2022/08/16 10:16:07;;;;;;;13.90;8.18;;;31.00;92.90;;;;;;6047187;23;20097;-78
2022/08/16 10:18:34;;;;;;;11.93;7.75;;;31.00;93.00;;;;;;6024216;23;20023;-79
2022/08/16 10:21:08;;;;;;;9.38;7.82;;;30.80;93.00;;;;;;6071670;23;20050;-80
2022/08/16 10:23:37;;;;;;;15.50;8.38;;;30.90;92.80;;;;;;6073061;23;20014;-78
2022/08/16 10:26:02;;;;;;;18.45;8.65;;;31.00;92.70;;;;;;6068831;23;20101;-79
2022/08/16 10:28:29;;;;;;;9.70;7.80;;;30.90;92.60;;;;;;6069267;23;20073;-79
2022/08/16 10:30:54;;;;;;;10.32;8.00;;;31.00;92.50;;;;;;6070463;23;20085;-78
2022/08/16 10:33:20;;;;;;;8.23;7.53;;;30.90;92.20;;;;;;6069829;23;20026;-79
2022/08/16 10:35:45;;;;;;;6.30;5.68;;;31.00;92.50;;;;;;6071326;23;20066;-78
2022/08/16 10:38:13;;;;;;;9.80;7.53;;;30.90;92.80;;;;;;6071608;23;20025;-78
2022/08/16 10:40:42;;;;;;;9.35;7.10;;;31.10;92.30;;;;;;6070316;23;20109;-79
2022/08/16 10:43:11;;;;;;;62.67;9.40;;;31.20;91.90;;;;;;6095591;23;20519;-79
2022/08/16 10:46:23;;;;;;;11.48;5.63;;;31.10;91.60;;;;;;6096754;23;20021;-80
2022/08/16 10:50:33;;;;;;;;;;;;;;;;;;;;;
2022/08/16 10:53:59;;;;;;;5.07;4.47;;;31.30;91.00;;;;;;5925671;24;20356;-79
2022/08/16 11:22:36;;;;;;;5.95;3.50;;;31.80;88.00;;;;;;6123580;23;20467;-80
2022/08/16 11:25:44;;;;;;;5.68;4.90;;;31.80;88.20;;;;;;6101531;23;20498;-79
2022/08/16 11:28:17;;;;;;;4.97;4.10;;;31.80;87.10;;;;;;6096567;23;20026;-80
2022/08/16 11:30:53;;;;;;;34.80;6.13;;;31.90;87.60;;;;;;6073750;23;20093;-79
2022/08/16 11:33:27;;;;;;;8.63;4.30;;;31.90;88.00;;;;;;6097027;23;20049;-80
2022/08/16 11:36:15;;;;;;;4.15;3.72;;;31.90;87.20;;;;;;6073461;23;20414;-80
2022/08/16 11:38:52;;;;;;;13.73;4.15;;;31.70;88.90;;;;;;6073887;23;20451;-79
2022/08/16 11:41:28;;;;;;;6.43;3.25;;;31.80;87.30;;;;;;6094284;23;20057;-79
2022/08/16 11:43:56;;;;;;;5.53;3.97;;;31.80;86.80;;;;;;6097596;23;20017;-80
2022/08/16 11:47:02;;;;;;;7.18;4.57;;;31.80;87.90;;;;;;6121659;23;20022;-80
2022/08/16 11:49:27;;;;;;;4.85;3.47;;;31.80;88.00;;;;;;6094762;23;20093;-80
2022/08/16 11:52:00;;;;;;;4.93;3.85;;;31.80;87.40;;;;;;6124578;23;20021;-80
2022/08/16 11:54:28;;;;;;;6.05;3.45;;;31.60;86.50;;;;;;6075126;23;20029;-80
2022/08/16 11:57:20;;;;;;;4.05;2.67;;;31.90;87.20;;;;;;6099181;23;20022;-80
2022/08/16 11:59:49;;;;;;;5.47;3.28;;;31.90;83.70;;;;;;6032069;23;20014;-79
2022/08/16 12:02:14;;;;;;;4.75;3.33;;;31.90;85.60;;;;;;6098777;23;20066;-80
2022/08/16 12:04:43;;;;;;;11.27;3.40;;;31.90;86.40;;;;;;6074199;23;20018;-79
2022/08/16 12:07:19;;;;;;;5.00;3.08;;;31.90;86.50;;;;;;6097853;23;20358;-80
2022/08/16 12:09:47;;;;;;;8.90;3.42;;;32.10;85.10;;;;;;6097506;23;20378;-79
2022/08/16 12:12:26;;;;;;;;;;;;;;;;;;;;;
2022/08/16 12:14:58;;;;;;;72.22;7.68;;;32.20;87.80;;;;;;6121026;23;20022;-80
2022/08/16 12:17:34;;;;;;;;;;;;;;;;;;;;;
2022/08/16 12:20:29;;;;;;;8.95;3.50;;;32.10;85.70;;;;;;6099014;23;20032;-80
2022/08/16 12:23:09;;;;;;;6.20;3.17;;;32.30;84.70;;;;;;6077001;23;20881;-79
2022/08/16 12:25:43;;;;;;;12.07;3.60;;;32.20;85.30;;;;;;6127836;23;20017;-80
2022/08/16 12:28:18;;;;;;;3.22;2.88;;;32.00;86.20;;;;;;6075337;23;20018;-80
2022/08/16 12:30:45;;;;;;;7.78;3.15;;;31.90;85.60;;;;;;6095565;23;20021;-80
2022/08/16 12:33:18;;;;;;;9.93;3.63;;;31.80;86.20;;;;;;6097209;23;20017;-81
2022/08/16 12:35:53;;;;;;;6.53;3.33;;;31.80;85.60;;;;;;6096562;23;20014;-81
2022/08/16 12:38:54;;;;;;;7.85;3.97;;;31.90;86.20;;;;;;6072400;23;20094;-81
2022/08/16 12:41:20;;;;;;;4.45;3.05;;;31.90;83.30;;;;;;6096124;23;20029;-81
2022/08/16 12:44:40;;;;;;;5.72;3.40;;;31.80;83.50;;;;;;6098717;23;20014;-80
2022/08/16 12:51:08;;;;;;;16.80;4.03;;;31.30;86.60;;;;;;6122345;23;20355;-80
2022/08/16 12:54:10;;;;;;;3.97;3.47;;;31.00;85.20;;;;;;6113382;23;20474;-79
2022/08/16 12:56:38;;;;;;;6.38;3.60;;;30.80;86.10;;;;;;6093016;23;20041;-79
2022/08/16 12:59:10;;;;;;;6.00;3.35;;;30.80;87.60;;;;;;6095365;23;20064;-80
2022/08/16 13:01:36;;;;;;;7.07;3.65;;;30.50;88.00;;;;;;6119392;23;20018;-78
2022/08/16 13:04:05;;;;;;;5.65;3.65;;;30.50;88.50;;;;;;6119356;23;20044;-79
2022/08/16 13:06:32;;;;;;;7.53;3.10;;;30.40;88.30;;;;;;6092811;23;20383;-79
2022/08/16 13:09:01;;;;;;;6.75;3.42;;;30.60;87.50;;;;;;6092506;23;20471;-79
2022/08/16 13:11:58;;;;;;;5.35;4.45;;;30.70;87.30;;;;;;6092983;23;20477;-82
2022/08/16 13:14:32;;;;;;;6.50;3.25;;;30.90;88.20;;;;;;6100796;23;20104;-82
2022/08/16 13:17:02;;;;;;;8.15;4.20;;;31.10;89.10;;;;;;6074971;23;20014;-78
2022/08/16 13:19:28;;;;;;;5.07;4.07;;;31.40;88.50;;;;;;6091069;23;20870;-78
2022/08/16 13:21:54;;;;;;;14.82;4.00;;;31.50;86.90;;;;;;6092015;23;20042;-76
2022/08/16 13:24:19;;;;;;;8.30;4.05;;;31.50;86.80;;;;;;6091794;23;20021;-77
2022/08/16 13:26:45;;;;;;;9.18;3.83;;;31.60;87.30;;;;;;6093185;23;20022;-78
2022/08/16 13:29:10;;;;;;;7.70;4.50;;;31.60;86.30;;;;;;6092689;23;20024;-77
2022/08/16 13:31:36;;;;;;;4.03;3.60;;;31.50;85.70;;;;;;6092711;23;20097;-77
2022/08/16 13:34:02;;;;;;;4.78;3.40;;;31.60;86.60;;;;;;6094091;23;20120;-78
2022/08/16 13:36:27;;;;;;;41.15;7.00;;;31.50;85.70;;;;;;6091815;23;20018;-78
2022/08/16 13:38:53;;;;;;;10.90;3.85;;;31.40;84.90;;;;;;6119403;23;20049;-77
2022/08/16 13:41:18;;;;;;;11.75;4.20;;;31.40;85.20;;;;;;6093513;23;20014;-78
2022/08/16 13:43:44;;;;;;;3.97;2.88;;;31.30;84.60;;;;;;6118845;23;20022;-80
2022/08/16 13:46:09;;;;;;;7.55;3.00;;;31.40;85.00;;;;;;6093168;23;20062;-79
2022/08/16 13:48:35;;;;;;;6.15;2.92;;;31.40;85.80;;;;;;6117790;23;20075;-78
2022/08/16 13:51:01;;;;;;;5.68;2.60;;;31.40;84.50;;;;;;6091886;23;20018;-79
2022/08/16 13:53:27;;;;;;;3.97;2.50;;;31.40;83.90;;;;;;6093561;23;20320;-77
2022/08/16 13:55:54;;;;;;;4.60;2.60;;;31.40;83.80;;;;;;6092553;23;20450;-78
2022/08/16 13:58:20;;;;;;;3.78;2.50;;;31.20;82.50;;;;;;6093386;23;20037;-77
2022/08/16 14:00:46;;;;;;;5.90;2.78;;;31.00;83.00;;;;;;6118008;23;20093;-77
2022/08/16 14:03:12;;;;;;;7.82;2.97;;;30.90;83.10;;;;;;6092505;23;20045;-77
2022/08/16 14:05:37;;;;;;;8.27;2.80;;;30.90;84.00;;;;;;6117489;23;20431;-77
2022/08/16 14:08:03;;;;;;;8.23;3.00;;;30.80;84.60;;;;;;6092102;23;20018;-77
2022/08/16 14:10:28;;;;;;;3.55;2.75;;;30.90;84.30;;;;;;6092739;23;20010;-77
2022/08/16 14:12:54;;;;;;;6.95;2.63;;;30.80;84.60;;;;;;6118966;23;20105;-78
2022/08/16 14:15:21;;;;;;;7.90;2.92;;;30.80;85.30;;;;;;6092627;23;20018;-78
2022/08/16 14:17:46;;;;;;;5.13;3.20;;;30.90;85.00;;;;;;6091988;23;20029;-78
2022/08/16 14:20:12;;;;;;;12.05;3.00;;;30.90;83.80;;;;;;6091813;23;20363;-77
2022/08/16 14:22:41;;;;;;;9.90;3.88;;;30.90;84.80;;;;;;6092385;23;20025;-77
2022/08/16 14:25:10;;;;;;;5.75;3.28;;;30.90;85.70;;;;;;6117670;23;20021;-77
2022/08/16 14:27:37;;;;;;;11.25;3.78;;;30.80;86.30;;;;;;6092249;23;20032;-78
2022/08/16 14:30:05;;;;;;;5.68;4.00;;;30.70;87.20;;;;;;6117889;23;20383;-77
2022/08/16 14:32:31;;;;;;;7.28;4.30;;;30.70;88.00;;;;;;6093142;23;20093;-77
2022/08/16 14:34:58;;;;;;;4.82;4.30;;;30.60;88.40;;;;;;6092415;23;20041;-78
2022/08/16 14:37:24;;;;;;;9.00;5.35;;;30.50;89.90;;;;;;6092868;23;20092;-78
2022/08/16 14:39:50;;;;;;;13.02;5.40;;;30.40;90.00;;;;;;6067205;23;20088;-78
2022/08/16 14:42:19;;;;;;;8.73;5.30;;;30.30;90.60;;;;;;6116882;23;20655;-77
2022/08/16 14:44:46;;;;;;;10.70;6.13;;;30.20;90.60;;;;;;6118941;23;20065;-77
2022/08/16 14:47:12;;;;;;;6.32;4.93;;;30.20;90.90;;;;;;6092006;23;20018;-78
2022/08/16 14:49:38;;;;;;;8.05;6.25;;;30.20;91.20;;;;;;6091838;23;20089;-78
2022/08/16 14:52:07;;;;;;;9.20;5.00;;;30.10;90.70;;;;;;6093167;23;20134;-78
2022/08/16 14:54:34;;;;;;;5.57;4.80;;;30.20;91.60;;;;;;6091830;23;20526;-80
2022/08/16 14:56:59;;;;;;;8.35;4.88;;;30.10;91.10;;;;;;6116767;23;20061;-79
2022/08/16 14:59:26;;;;;;;8.77;5.05;;;30.00;90.70;;;;;;6090479;23;20033;-77
2022/08/16 15:01:53;;;;;;;8.07;4.70;;;29.80;90.90;;;;;;6092208;23;20018;-76
2022/08/16 15:04:21;;;;;;;10.07;4.63;;;29.60;91.00;;;;;;6092863;23;20091;-79
2022/08/16 15:06:53;;;;;;;7.35;4.88;;;29.60;91.70;;;;;;6098083;23;20024;-83
2022/08/16 15:09:19;;;;;;;7.30;5.13;;;29.50;91.40;;;;;;6078469;23;20033;-80
2022/08/16 15:11:58;;;;;;;11.35;5.82;;;29.50;91.80;;;;;;6083057;23;20054;-81
2022/08/16 15:15:11;;;;;;;14.88;6.47;;;29.20;92.30;;;;;;6061023;23;20013;-82
2022/08/16 15:17:42;;;;;;;9.52;5.50;;;29.10;92.50;;;;;;6104163;23;20010;-82
2022/08/16 15:20:10;;;;;;;8.90;5.75;;;28.90;92.60;;;;;;6051032;23;20081;-79
2022/08/16 15:22:42;;;;;;;10.27;5.80;;;29.00;92.90;;;;;;6093080;23;20036;-80
2022/08/16 15:25:21;;;;;;;8.48;5.38;;;28.90;93.00;;;;;;6099701;23;20017;-79
2022/08/16 15:27:47;;;;;;;9.60;6.15;;;28.80;93.10;;;;;;6101853;23;20018;-79
2022/08/16 15:30:17;;;;;;;7.82;5.65;;;28.80;93.20;;;;;;6078891;23;20506;-80
2022/08/16 15:32:44;;;;;;;12.55;5.80;;;28.70;93.00;;;;;;6078020;23;20077;-80
2022/08/16 15:35:12;;;;;;;6.35;5.18;;;28.80;93.30;;;;;;6101741;23;20021;-80
2022/08/16 15:37:37;;;;;;;11.15;5.70;;;28.60;93.40;;;;;;6075742;23;20013;-79
2022/08/16 15:40:10;;;;;;;9.50;5.47;;;28.60;93.30;;;;;;6075486;23;20025;-79
2022/08/16 15:42:36;;;;;;;6.30;5.57;;;28.50;93.10;;;;;;6128404;23;20068;-79
2022/08/16 15:45:05;;;;;;;6.20;4.43;;;28.70;92.70;;;;;;6106375;23;20014;-80
2022/08/16 15:47:32;;;;;;;4.05;3.42;;;28.50;92.60;;;;;;6131936;23;20062;-79
2022/08/16 15:49:58;;;;;;;4.15;3.75;;;28.50;92.90;;;;;;6101141;23;20419;-78
2022/08/16 15:52:35;;;;;;;17.38;4.25;;;28.60;92.20;;;;;;6102056;23;20060;-82
2022/08/16 15:55:11;;;;;;;6.13;3.75;;;28.50;91.10;;;;;;6129541;23;20050;-82
2022/08/16 15:57:39;;;;;;;4.95;3.35;;;28.50;91.10;;;;;;6100213;23;20018;-82
2022/08/16 16:00:07;;;;;;;12.60;3.60;;;28.40;91.50;;;;;;6101849;23;20081;-81
2022/08/16 16:02:34;;;;;;;9.07;3.28;;;28.40;91.50;;;;;;6098275;23;20014;-79
2022/08/16 16:05:41;;;;;;;;;;;;;;;;;;;;;
2022/08/16 16:08:25;;;;;;;4.20;3.00;;;28.20;91.30;;;;;;6099733;23;20414;-80
2022/08/16 16:10:54;;;;;;;4.95;3.05;;;27.90;91.20;;;;;;6070633;23;20018;-80
2022/08/16 16:13:20;;;;;;;5.07;2.92;;;28.00;91.20;;;;;;6093335;23;20455;-79
2022/08/16 16:15:49;;;;;;;7.25;3.17;;;28.20;91.20;;;;;;6070763;23;20038;-78
2022/08/16 16:18:16;;;;;;;10.45;3.15;;;27.90;90.80;;;;;;6070571;23;20128;-79
2022/08/16 16:20:48;;;;;;;8.60;3.03;;;27.90;90.70;;;;;;6092318;23;20348;-78
2022/08/16 16:23:18;;;;;;;7.72;3.17;;;27.90;90.80;;;;;;6094627;23;20010;-78
2022/08/16 16:25:44;;;;;;;6.40;3.30;;;27.90;91.10;;;;;;6129518;23;20022;-78
2022/08/16 16:28:35;;;;;;;8.50;2.72;;;27.90;91.00;;;;;;6079051;23;20026;-79
2022/08/16 16:31:15;;;;;;;4.55;3.00;;;27.80;91.10;;;;;;6108323;23;20014;-80
2022/08/16 16:34:31;;;;;;;5.68;2.97;;;27.80;91.50;;;;;;6083959;23;20025;-80
2022/08/16 16:37:09;;;;;;;7.38;3.22;;;27.70;92.40;;;;;;6107008;23;20222;-80
2022/08/16 16:39:36;;;;;;;6.65;3.95;;;27.80;92.30;;;;;;6058054;23;20022;-80
2022/08/16 16:42:04;;;;;;;4.25;3.67;;;27.70;92.80;;;;;;6056037;23;20053;-81
2022/08/16 16:44:29;;;;;;;6.18;3.40;;;27.70;92.70;;;;;;6107066;23;20053;-80
2022/08/16 16:46:55;;;;;;;4.88;3.47;;;27.70;93.20;;;;;;6133350;23;20037;-82